createdAt,value
2022-10-06T00:01:07.128Z,29.10
2022-10-06T00:06:06.038Z,28.08
2022-10-06T00:10:59.564Z,27.98
2022-10-06T00:30:34.392Z,26.45
2022-10-06T00:35:30.042Z,25.30
2022-10-06T00:40:24.220Z,25.35
2022-10-06T00:45:18.883Z,25.30
2022-10-06T00:50:13.337Z,26.83
2022-10-06T00:55:10.206Z,25.33
2022-10-06T01:00:04.678Z,24.50
2022-10-06T01:05:01.048Z,22.20
2022-10-06T01:09:58.935Z,21.98
2022-10-06T01:14:53.273Z,20.98
2022-10-06T01:20:04.322Z,23.05
2022-10-06T01:24:58.631Z,24.95
2022-10-06T01:30:14.342Z,25.15
2022-10-06T01:35:09.918Z,25.88
2022-10-06T01:40:03.638Z,24.75
2022-10-06T01:44:57.279Z,24.80
2022-10-06T01:49:51.515Z,24.05
2022-10-06T01:54:44.752Z,24.17
2022-10-06T02:04:31.946Z,23.50
2022-10-06T02:09:25.468Z,23.98
2022-10-06T02:14:21.367Z,24.42
2022-10-06T02:19:14.553Z,22.55
2022-10-06T02:24:07.695Z,23.27
2022-10-06T02:29:00.957Z,21.75
2022-10-06T02:33:53.564Z,21.73
2022-10-06T02:38:47.417Z,21.63
2022-10-06T02:43:41.081Z,20.95
2022-10-06T02:48:35.243Z,21.45
2022-10-06T02:53:29.891Z,20.27
2022-10-06T02:58:23.226Z,22.17
2022-10-06T03:03:17.868Z,20.88
2022-10-06T03:08:31.493Z,20.70
2022-10-06T03:13:25.525Z,23.10
2022-10-06T03:18:20.311Z,21.98
2022-10-06T03:23:14.325Z,23.95
2022-10-06T03:28:08.023Z,23.27
2022-10-06T03:33:02.262Z,23.98
2022-10-06T03:37:55.933Z,23.40
2022-10-06T03:42:49.465Z,23.63
2022-10-06T03:47:43.513Z,22.98
2022-10-06T03:52:37.237Z,23.38
2022-10-06T03:57:30.485Z,25.17
2022-10-06T04:02:23.849Z,24.80
2022-10-06T04:07:17.913Z,25.40
2022-10-06T04:12:11.931Z,25.40
2022-10-06T04:17:07.412Z,24.75
2022-10-06T04:22:02.647Z,24.75
2022-10-06T04:27:16.470Z,26.00
2022-10-06T04:32:15.449Z,26.83
2022-10-06T04:37:09.752Z,28.27
2022-10-06T04:42:04.800Z,31.65
2022-10-06T04:46:58.157Z,33.50
2022-10-06T04:51:52.472Z,30.65
2022-10-06T04:56:47.770Z,33.60
2022-10-06T05:01:43.126Z,34.88
2022-10-06T05:06:43.408Z,33.38
2022-10-06T05:11:39.065Z,35.85
2022-10-06T05:16:34.791Z,35.90
2022-10-06T05:26:37.401Z,36.30
2022-10-06T05:31:39.276Z,32.33
2022-10-06T05:36:34.496Z,33.78
2022-10-06T05:41:31.223Z,33.10
2022-10-06T05:46:29.978Z,31.60
2022-10-06T05:51:30.365Z,33.78
2022-10-06T05:56:28.857Z,33.25
2022-10-06T06:01:33.417Z,31.63
2022-10-06T06:06:31.583Z,31.42
2022-10-06T06:11:31.797Z,30.05
2022-10-06T06:16:26.129Z,29.40
2022-10-06T06:21:22.618Z,28.42
2022-10-06T06:26:25.274Z,28.65
2022-10-06T06:31:27.449Z,26.30
2022-10-06T06:36:26.164Z,26.02
2022-10-06T06:41:23.736Z,24.38
2022-10-06T06:46:25.534Z,25.40
2022-10-06T06:51:28.244Z,26.55
2022-10-06T06:56:22.578Z,26.80
2022-10-06T07:01:18.750Z,27.70
2022-10-06T07:06:15.029Z,23.88
2022-10-06T07:11:24.727Z,26.75
2022-10-06T07:16:37.429Z,22.95
2022-10-06T07:21:49.177Z,20.60
2022-10-06T07:26:42.901Z,18.67
2022-10-06T07:31:36.887Z,17.33
2022-10-06T07:36:31.000Z,17.42
2022-10-06T07:41:25.783Z,17.65
2022-10-06T07:46:25.621Z,18.40
2022-10-06T07:51:30.804Z,19.40
2022-10-06T07:56:25.797Z,19.65
2022-10-06T08:01:21.368Z,27.27
2022-10-06T08:06:20.669Z,23.52
2022-10-06T08:11:15.392Z,26.98
2022-10-06T08:16:18.330Z,26.50
2022-10-06T08:21:14.515Z,26.40
2022-10-06T08:26:07.960Z,31.25
2022-10-06T08:31:12.448Z,26.23
2022-10-06T08:36:31.335Z,27.77
2022-10-06T08:41:28.399Z,26.35
2022-10-06T08:46:31.514Z,28.85
2022-10-06T08:52:03.740Z,27.88
2022-10-06T08:57:11.082Z,27.67
2022-10-06T09:02:10.706Z,29.58
2022-10-06T09:07:06.676Z,28.67
2022-10-06T09:12:19.165Z,28.48
2022-10-06T09:17:18.151Z,27.63
2022-10-06T09:22:22.954Z,27.75
2022-10-06T09:27:42.230Z,27.67
2022-10-06T09:32:35.741Z,26.55
2022-10-06T09:37:30.585Z,26.17
2022-10-06T09:42:46.274Z,28.55
2022-10-06T09:47:47.734Z,24.20
2022-10-06T09:53:14.364Z,24.55
2022-10-06T09:58:18.006Z,24.10
2022-10-06T10:03:14.819Z,24.35
2022-10-06T10:08:30.423Z,23.83
2022-10-06T10:13:27.225Z,26.08
2022-10-06T10:18:35.236Z,25.23
2022-10-06T10:23:36.616Z,27.52
2022-10-06T10:28:47.585Z,26.77
2022-10-06T10:33:59.195Z,25.42
2022-10-06T10:39:03.032Z,28.30
2022-10-06T10:44:04.025Z,28.60
2022-10-06T10:49:18.840Z,27.38
2022-10-06T10:54:37.596Z,28.55
2022-10-06T11:00:02.593Z,28.45
2022-10-06T11:04:59.232Z,22.17
2022-10-06T11:10:13.273Z,24.65
2022-10-06T11:15:32.374Z,23.95
2022-10-06T11:20:52.935Z,23.67
2022-10-06T11:26:10.591Z,23.48
2022-10-06T11:31:23.188Z,22.20
2022-10-06T11:36:30.409Z,21.33
2022-10-06T11:41:39.898Z,21.95
2022-10-06T11:47:02.004Z,25.63
2022-10-06T11:52:18.297Z,22.55
2022-10-06T11:57:29.348Z,21.52
2022-10-06T12:02:43.347Z,18.30
2022-10-06T12:07:55.139Z,21.02
2022-10-06T12:13:21.171Z,21.52
2022-10-06T12:29:50.996Z,24.20
2022-10-06T12:35:12.762Z,26.30
2022-10-06T12:40:43.565Z,27.55
2022-10-06T12:45:57.477Z,24.60
2022-10-06T12:51:28.546Z,23.15
2022-10-06T12:56:28.818Z,21.40
2022-10-06T13:01:23.438Z,21.25
2022-10-06T13:06:28.436Z,20.33
2022-10-06T13:11:27.548Z,22.00
2022-10-06T13:16:46.217Z,21.48
2022-10-06T13:22:02.265Z,22.30
2022-10-06T13:26:56.742Z,22.27
2022-10-06T13:31:53.298Z,23.63
2022-10-06T13:36:52.214Z,21.65
2022-10-06T13:41:48.694Z,22.45
2022-10-06T13:46:45.461Z,20.42
2022-10-06T13:51:39.117Z,21.15
2022-10-06T13:56:38.949Z,19.75
2022-10-06T14:01:33.880Z,17.80
2022-10-06T14:06:28.595Z,19.77
2022-10-06T14:11:48.122Z,15.98
2022-10-06T14:16:48.407Z,15.05
2022-10-06T14:21:44.948Z,13.07
2022-10-06T14:26:38.815Z,13.77
2022-10-06T14:31:34.649Z,14.23
2022-10-06T14:36:31.948Z,14.55
2022-10-06T14:41:31.031Z,14.95
2022-10-06T14:46:26.017Z,14.75
2022-10-06T14:51:21.161Z,13.68
2022-10-06T14:56:16.858Z,12.60
2022-10-06T15:01:12.983Z,11.98
2022-10-06T15:06:27.706Z,12.27
2022-10-06T15:11:22.528Z,11.38
2022-10-06T15:16:17.724Z,10.35
2022-10-06T15:21:12.639Z,11.88
2022-10-06T15:26:25.522Z,10.23
2022-10-06T15:31:24.806Z,8.75
2022-10-06T15:36:20.285Z,10.73
2022-10-06T15:41:14.485Z,10.70
2022-10-06T15:46:08.596Z,9.98
2022-10-06T15:51:03.670Z,11.50
2022-10-06T15:55:59.489Z,10.77
2022-10-06T16:00:53.466Z,10.50
2022-10-06T16:05:51.897Z,10.50
2022-10-06T16:10:51.033Z,11.55
2022-10-06T16:15:46.288Z,11.25
2022-10-06T16:20:40.834Z,11.32
2022-10-06T16:25:34.932Z,10.77
2022-10-06T16:30:28.924Z,13.23
2022-10-06T16:35:23.551Z,10.00
2022-10-06T16:40:20.276Z,11.43
2022-10-06T16:45:17.633Z,10.35
2022-10-06T16:50:11.831Z,12.70
2022-10-06T16:55:08.834Z,13.93
2022-10-06T17:00:06.585Z,13.75
2022-10-06T17:05:00.989Z,13.20
2022-10-06T17:10:15.603Z,14.30
2022-10-06T17:15:09.596Z,13.43
2022-10-06T17:20:03.637Z,14.70
2022-10-06T17:24:58.137Z,15.50
2022-10-06T17:29:52.376Z,17.52
2022-10-06T17:34:46.205Z,17.70
2022-10-06T17:39:41.560Z,17.10
2022-10-06T17:44:40.225Z,15.43
2022-10-06T17:49:35.359Z,13.82
2022-10-06T17:54:32.397Z,15.35
2022-10-06T17:59:31.714Z,16.35
2022-10-06T18:04:24.845Z,17.40
2022-10-06T18:09:19.190Z,19.00
2022-10-06T18:14:15.007Z,17.85
2022-10-06T18:19:39.300Z,17.30
2022-10-06T18:24:33.813Z,17.88
2022-10-06T18:29:31.256Z,17.15
2022-10-06T18:39:38.553Z,18.60
2022-10-06T18:44:50.329Z,18.15
2022-10-06T18:49:44.983Z,16.88
2022-10-06T18:54:38.445Z,16.33
2022-10-06T18:59:32.478Z,17.95
2022-10-06T19:04:26.423Z,19.55
2022-10-06T19:09:22.092Z,18.42
2022-10-06T19:14:17.904Z,19.23
2022-10-06T19:19:32.454Z,20.60
2022-10-06T19:24:39.831Z,20.48
2022-10-06T19:29:37.576Z,19.63
2022-10-06T19:34:31.032Z,19.95
2022-10-06T19:39:27.997Z,20.67
2022-10-06T19:44:21.369Z,20.38
2022-10-06T19:49:15.059Z,21.25
2022-10-06T19:54:12.442Z,20.17
2022-10-06T19:59:06.840Z,19.83
2022-10-06T20:04:01.301Z,21.98
2022-10-06T20:08:58.710Z,22.20
2022-10-06T20:13:53.308Z,22.27
2022-10-06T20:18:48.331Z,21.90
2022-10-06T20:23:41.798Z,21.75
2022-10-06T20:33:29.947Z,21.33
2022-10-06T20:38:43.861Z,21.55
2022-10-06T20:43:38.391Z,20.42
2022-10-06T20:48:34.613Z,20.77
2022-10-06T20:53:34.549Z,22.25
2022-10-06T20:58:28.006Z,22.10
2022-10-06T21:03:21.757Z,23.05
2022-10-06T21:08:16.592Z,25.63
2022-10-06T21:13:11.531Z,26.50
2022-10-06T21:18:09.394Z,28.95
2022-10-06T21:23:05.634Z,28.40
2022-10-06T21:27:59.741Z,30.30
2022-10-06T21:32:55.264Z,31.17
2022-10-06T21:37:50.435Z,31.58
2022-10-06T21:42:50.509Z,28.55
2022-10-06T21:47:48.214Z,28.80
2022-10-06T21:52:44.811Z,30.02
2022-10-06T21:57:39.785Z,31.77
2022-10-06T22:02:34.293Z,28.00
2022-10-06T22:07:28.519Z,29.33
2022-10-06T22:12:22.787Z,29.42
2022-10-06T22:17:16.806Z,30.05
2022-10-06T22:22:11.719Z,31.23
2022-10-06T22:27:06.573Z,32.38
2022-10-06T22:32:00.315Z,30.23
2022-10-06T22:36:55.180Z,32.05
2022-10-06T22:41:50.026Z,33.28
2022-10-06T22:46:45.072Z,32.03
2022-10-06T22:51:39.630Z,27.40
2022-10-06T22:56:36.008Z,28.58
2022-10-06T23:01:31.630Z,27.70
2022-10-06T23:06:26.674Z,28.10
2022-10-06T23:11:21.940Z,28.17
2022-10-06T23:16:17.871Z,27.60
2022-10-06T23:21:33.360Z,31.05
2022-10-06T23:26:27.671Z,30.15
2022-10-06T23:31:22.437Z,32.28
2022-10-06T23:36:16.620Z,34.08
2022-10-06T23:41:11.147Z,29.42
2022-10-06T23:46:06.402Z,29.08
2022-10-06T23:51:08.655Z,29.70
2022-10-06T23:56:03.941Z,31.25
